sensor_id;sensor_type;location;lat;lon;timestamp;P1;durP1;ratioP1;P2;durP2;ratioP2
77061;SDS011;65989;51.686;5.138;2023-05-10T00:00:23;41.72;;;20.42;;
77061;SDS011;65989;51.686;5.138;2023-05-10T00:02:49;43.73;;;20.47;;
77061;SDS011;65989;51.686;5.138;2023-05-10T00:05:14;46.33;;;20.20;;
77061;SDS011;65989;51.686;5.138;2023-05-10T00:07:40;47.97;;;20.90;;
77061;SDS011;65989;51.686;5.138;2023-05-10T00:10:05;45.70;;;19.23;;
77061;SDS011;65989;51.686;5.138;2023-05-10T00:12:31;48.30;;;19.88;;
77061;SDS011;65989;51.686;5.138;2023-05-10T00:14:56;44.57;;;19.07;;
77061;SDS011;65989;51.686;5.138;2023-05-10T00:17:22;48.63;;;20.07;;
77061;SDS011;65989;51.686;5.138;2023-05-10T00:19:47;55.47;;;19.80;;
77061;SDS011;65989;51.686;5.138;2023-05-10T00:22:13;48.33;;;19.77;;
77061;SDS011;65989;51.686;5.138;2023-05-10T00:24:38;43.10;;;18.23;;
77061;SDS011;65989;51.686;5.138;2023-05-10T00:27:03;44.47;;;19.83;;
77061;SDS011;65989;51.686;5.138;2023-05-10T00:29:29;53.50;;;20.50;;
77061;SDS011;65989;51.686;5.138;2023-05-10T00:31:54;52.72;;;20.75;;
77061;SDS011;65989;51.686;5.138;2023-05-10T00:34:20;49.97;;;20.70;;
77061;SDS011;65989;51.686;5.138;2023-05-10T00:36:45;51.20;;;20.20;;
77061;SDS011;65989;51.686;5.138;2023-05-10T00:39:11;49.70;;;19.93;;
77061;SDS011;65989;51.686;5.138;2023-05-10T00:41:37;54.00;;;20.85;;
77061;SDS011;65989;51.686;5.138;2023-05-10T00:44:02;57.70;;;23.20;;
77061;SDS011;65989;51.686;5.138;2023-05-10T00:46:29;60.50;;;22.43;;
77061;SDS011;65989;51.686;5.138;2023-05-10T00:48:55;59.35;;;22.38;;
77061;SDS011;65989;51.686;5.138;2023-05-10T00:51:21;60.78;;;21.55;;
77061;SDS011;65989;51.686;5.138;2023-05-10T00:53:46;66.97;;;23.03;;
77061;SDS011;65989;51.686;5.138;2023-05-10T00:56:14;61.78;;;22.48;;
77061;SDS011;65989;51.686;5.138;2023-05-10T00:58:40;55.97;;;21.57;;
77061;SDS011;65989;51.686;5.138;2023-05-10T01:01:06;59.88;;;21.90;;
77061;SDS011;65989;51.686;5.138;2023-05-10T01:03:33;53.85;;;20.88;;
77061;SDS011;65989;51.686;5.138;2023-05-10T01:05:58;55.00;;;20.23;;
77061;SDS011;65989;51.686;5.138;2023-05-10T01:08:24;58.07;;;19.57;;
77061;SDS011;65989;51.686;5.138;2023-05-10T01:10:50;53.40;;;19.73;;
77061;SDS011;65989;51.686;5.138;2023-05-10T01:13:18;57.65;;;18.52;;
77061;SDS011;65989;51.686;5.138;2023-05-10T01:15:55;48.28;;;19.45;;
77061;SDS011;65989;51.686;5.138;2023-05-10T01:18:21;48.10;;;18.90;;
77061;SDS011;65989;51.686;5.138;2023-05-10T01:20:47;50.55;;;19.02;;
77061;SDS011;65989;51.686;5.138;2023-05-10T01:34:20;54.00;;;18.52;;
77061;SDS011;65989;51.686;5.138;2023-05-10T01:39:25;45.90;;;17.92;;
77061;SDS011;65989;51.686;5.138;2023-05-10T01:42:03;41.83;;;16.60;;
77061;SDS011;65989;51.686;5.138;2023-05-10T01:47:30;52.65;;;18.33;;
77061;SDS011;65989;51.686;5.138;2023-05-10T01:49:55;43.65;;;17.65;;
77061;SDS011;65989;51.686;5.138;2023-05-10T01:52:29;46.88;;;17.92;;
77061;SDS011;65989;51.686;5.138;2023-05-10T01:55:01;44.33;;;17.30;;
77061;SDS011;65989;51.686;5.138;2023-05-10T01:57:34;48.58;;;16.92;;
77061;SDS011;65989;51.686;5.138;2023-05-10T02:00:01;48.40;;;18.08;;
77061;SDS011;65989;51.686;5.138;2023-05-10T02:02:33;41.10;;;17.67;;
77061;SDS011;65989;51.686;5.138;2023-05-10T02:05:05;41.85;;;17.75;;
77061;SDS011;65989;51.686;5.138;2023-05-10T02:07:33;52.70;;;18.90;;
77061;SDS011;65989;51.686;5.138;2023-05-10T02:10:00;46.50;;;18.75;;
77061;SDS011;65989;51.686;5.138;2023-05-10T02:12:27;39.85;;;17.27;;
77061;SDS011;65989;51.686;5.138;2023-05-10T02:14:54;44.15;;;18.50;;
77061;SDS011;65989;51.686;5.138;2023-05-10T02:17:20;45.45;;;20.15;;
77061;SDS011;65989;51.686;5.138;2023-05-10T02:19:46;58.63;;;22.27;;
77061;SDS011;65989;51.686;5.138;2023-05-10T02:22:12;57.90;;;23.85;;
77061;SDS011;65989;51.686;5.138;2023-05-10T02:24:40;59.65;;;24.77;;
77061;SDS011;65989;51.686;5.138;2023-05-10T02:27:06;61.45;;;25.55;;
77061;SDS011;65989;51.686;5.138;2023-05-10T02:29:34;64.73;;;27.03;;
77061;SDS011;65989;51.686;5.138;2023-05-10T02:32:01;64.22;;;28.15;;
77061;SDS011;65989;51.686;5.138;2023-05-10T02:34:28;72.38;;;27.70;;
77061;SDS011;65989;51.686;5.138;2023-05-10T02:36:54;66.20;;;28.27;;
77061;SDS011;65989;51.686;5.138;2023-05-10T02:39:21;71.43;;;29.98;;
77061;SDS011;65989;51.686;5.138;2023-05-10T02:41:48;76.83;;;29.70;;
77061;SDS011;65989;51.686;5.138;2023-05-10T02:44:15;79.50;;;30.33;;
77061;SDS011;65989;51.686;5.138;2023-05-10T02:46:43;72.07;;;31.60;;
77061;SDS011;65989;51.686;5.138;2023-05-10T02:49:09;82.50;;;29.85;;
77061;SDS011;65989;51.686;5.138;2023-05-10T02:51:35;72.63;;;32.00;;
77061;SDS011;65989;51.686;5.138;2023-05-10T02:54:12;76.67;;;30.37;;
77061;SDS011;65989;51.686;5.138;2023-05-10T02:56:47;79.70;;;30.33;;
77061;SDS011;65989;51.686;5.138;2023-05-10T02:59:15;85.93;;;31.38;;
77061;SDS011;65989;51.686;5.138;2023-05-10T03:01:41;72.00;;;30.17;;
77061;SDS011;65989;51.686;5.138;2023-05-10T03:04:06;72.78;;;32.15;;
77061;SDS011;65989;51.686;5.138;2023-05-10T03:06:32;71.90;;;30.43;;
77061;SDS011;65989;51.686;5.138;2023-05-10T03:08:57;74.20;;;31.65;;
77061;SDS011;65989;51.686;5.138;2023-05-10T03:17:10;69.28;;;29.20;;
77061;SDS011;65989;51.686;5.138;2023-05-10T03:19:49;70.03;;;29.63;;
77061;SDS011;65989;51.686;5.138;2023-05-10T03:22:32;76.88;;;30.73;;
77061;SDS011;65989;51.686;5.138;2023-05-10T03:25:04;74.20;;;30.45;;
77061;SDS011;65989;51.686;5.138;2023-05-10T03:27:31;64.50;;;28.92;;
77061;SDS011;65989;51.686;5.138;2023-05-10T03:29:57;76.55;;;30.08;;
77061;SDS011;65989;51.686;5.138;2023-05-10T03:32:23;67.23;;;30.20;;
77061;SDS011;65989;51.686;5.138;2023-05-10T03:34:48;63.33;;;29.73;;
77061;SDS011;65989;51.686;5.138;2023-05-10T03:37:14;68.37;;;29.20;;
77061;SDS011;65989;51.686;5.138;2023-05-10T03:39:39;63.70;;;27.33;;
77061;SDS011;65989;51.686;5.138;2023-05-10T03:42:05;64.00;;;27.27;;
77061;SDS011;65989;51.686;5.138;2023-05-10T03:44:30;69.23;;;26.77;;
77061;SDS011;65989;51.686;5.138;2023-05-10T03:46:58;67.47;;;27.70;;
77061;SDS011;65989;51.686;5.138;2023-05-10T03:49:23;66.00;;;29.00;;
77061;SDS011;65989;51.686;5.138;2023-05-10T03:51:49;65.87;;;28.00;;
77061;SDS011;65989;51.686;5.138;2023-05-10T03:54:14;68.88;;;26.85;;
77061;SDS011;65989;51.686;5.138;2023-05-10T03:56:39;67.30;;;28.23;;
77061;SDS011;65989;51.686;5.138;2023-05-10T03:59:05;77.67;;;28.53;;
77061;SDS011;65989;51.686;5.138;2023-05-10T04:01:32;66.57;;;28.20;;
77061;SDS011;65989;51.686;5.138;2023-05-10T04:03:58;67.28;;;27.70;;
77061;SDS011;65989;51.686;5.138;2023-05-10T04:06:24;62.87;;;27.60;;
77061;SDS011;65989;51.686;5.138;2023-05-10T04:08:49;63.47;;;28.17;;
77061;SDS011;65989;51.686;5.138;2023-05-10T04:11:14;65.03;;;28.67;;
77061;SDS011;65989;51.686;5.138;2023-05-10T04:13:40;67.55;;;30.52;;
77061;SDS011;65989;51.686;5.138;2023-05-10T04:16:06;70.87;;;30.30;;
77061;SDS011;65989;51.686;5.138;2023-05-10T04:18:31;75.57;;;31.03;;
77061;SDS011;65989;51.686;5.138;2023-05-10T04:20:57;71.63;;;30.17;;
77061;SDS011;65989;51.686;5.138;2023-05-10T04:23:22;76.03;;;31.47;;
77061;SDS011;65989;51.686;5.138;2023-05-10T04:25:48;77.17;;;31.10;;
77061;SDS011;65989;51.686;5.138;2023-05-10T04:28:13;72.20;;;30.67;;
77061;SDS011;65989;51.686;5.138;2023-05-10T04:30:39;71.53;;;32.43;;
77061;SDS011;65989;51.686;5.138;2023-05-10T04:33:05;70.32;;;30.45;;
77061;SDS011;65989;51.686;5.138;2023-05-10T04:35:30;62.80;;;30.27;;
77061;SDS011;65989;51.686;5.138;2023-05-10T04:37:56;68.70;;;29.75;;
77061;SDS011;65989;51.686;5.138;2023-05-10T04:40:21;69.77;;;31.07;;
77061;SDS011;65989;51.686;5.138;2023-05-10T04:42:47;69.33;;;29.97;;
77061;SDS011;65989;51.686;5.138;2023-05-10T04:45:12;64.90;;;29.40;;
77061;SDS011;65989;51.686;5.138;2023-05-10T04:47:39;60.38;;;28.98;;
77061;SDS011;65989;51.686;5.138;2023-05-10T04:50:05;61.22;;;28.52;;
77061;SDS011;65989;51.686;5.138;2023-05-10T04:52:31;53.87;;;27.30;;
77061;SDS011;65989;51.686;5.138;2023-05-10T04:54:56;57.47;;;28.05;;
77061;SDS011;65989;51.686;5.138;2023-05-10T04:57:22;60.03;;;28.27;;
77061;SDS011;65989;51.686;5.138;2023-05-10T04:59:47;63.83;;;27.70;;
77061;SDS011;65989;51.686;5.138;2023-05-10T05:02:13;62.28;;;27.20;;
77061;SDS011;65989;51.686;5.138;2023-05-10T05:04:38;56.63;;;27.03;;
77061;SDS011;65989;51.686;5.138;2023-05-10T05:07:03;54.80;;;27.07;;
77061;SDS011;65989;51.686;5.138;2023-05-10T05:09:29;59.05;;;26.13;;
77061;SDS011;65989;51.686;5.138;2023-05-10T05:11:57;57.87;;;25.40;;
77061;SDS011;65989;51.686;5.138;2023-05-10T05:14:38;56.70;;;25.33;;
77061;SDS011;65989;51.686;5.138;2023-05-10T05:17:04;57.50;;;24.90;;
77061;SDS011;65989;51.686;5.138;2023-05-10T05:19:30;51.75;;;23.83;;
77061;SDS011;65989;51.686;5.138;2023-05-10T05:21:56;54.55;;;23.23;;
77061;SDS011;65989;51.686;5.138;2023-05-10T05:24:21;54.37;;;24.63;;
77061;SDS011;65989;51.686;5.138;2023-05-10T05:26:47;51.23;;;23.23;;
77061;SDS011;65989;51.686;5.138;2023-05-10T05:29:12;47.80;;;23.10;;
77061;SDS011;65989;51.686;5.138;2023-05-10T05:31:37;43.83;;;22.40;;
77061;SDS011;65989;51.686;5.138;2023-05-10T05:34:03;47.47;;;23.93;;
77061;SDS011;65989;51.686;5.138;2023-05-10T05:36:28;44.13;;;21.67;;
77061;SDS011;65989;51.686;5.138;2023-05-10T05:38:53;49.70;;;22.80;;
77061;SDS011;65989;51.686;5.138;2023-05-10T05:41:19;41.97;;;21.48;;
77061;SDS011;65989;51.686;5.138;2023-05-10T05:43:46;47.85;;;22.85;;
77061;SDS011;65989;51.686;5.138;2023-05-10T05:46:11;40.50;;;22.53;;
77061;SDS011;65989;51.686;5.138;2023-05-10T05:48:37;46.37;;;22.80;;
77061;SDS011;65989;51.686;5.138;2023-05-10T05:51:02;47.73;;;23.57;;
77061;SDS011;65989;51.686;5.138;2023-05-10T05:53:27;48.43;;;21.80;;
77061;SDS011;65989;51.686;5.138;2023-05-10T05:55:54;44.15;;;22.70;;
77061;SDS011;65989;51.686;5.138;2023-05-10T05:58:21;47.33;;;22.37;;
77061;SDS011;65989;51.686;5.138;2023-05-10T06:00:47;47.15;;;24.10;;
77061;SDS011;65989;51.686;5.138;2023-05-10T06:03:12;49.50;;;23.67;;
77061;SDS011;65989;51.686;5.138;2023-05-10T06:05:38;47.57;;;23.90;;
77061;SDS011;65989;51.686;5.138;2023-05-10T06:08:03;54.53;;;24.30;;
77061;SDS011;65989;51.686;5.138;2023-05-10T06:10:29;52.28;;;24.48;;
77061;SDS011;65989;51.686;5.138;2023-05-10T06:12:55;50.20;;;24.53;;
77061;SDS011;65989;51.686;5.138;2023-05-10T06:15:21;52.95;;;24.75;;
77061;SDS011;65989;51.686;5.138;2023-05-10T06:17:46;53.43;;;28.17;;
77061;SDS011;65989;51.686;5.138;2023-05-10T06:20:14;57.50;;;27.58;;
77061;SDS011;65989;51.686;5.138;2023-05-10T06:22:40;56.30;;;26.70;;
77061;SDS011;65989;51.686;5.138;2023-05-10T06:25:05;61.30;;;29.37;;
77061;SDS011;65989;51.686;5.138;2023-05-10T06:27:31;52.28;;;27.85;;
77061;SDS011;65989;51.686;5.138;2023-05-10T06:29:56;58.00;;;27.50;;
77061;SDS011;65989;51.686;5.138;2023-05-10T06:32:22;55.17;;;27.57;;
77061;SDS011;65989;51.686;5.138;2023-05-10T06:34:47;44.97;;;23.20;;
77061;SDS011;65989;51.686;5.138;2023-05-10T06:37:12;39.20;;;21.23;;
77061;SDS011;65989;51.686;5.138;2023-05-10T06:39:38;45.90;;;21.43;;
77061;SDS011;65989;51.686;5.138;2023-05-10T06:42:03;42.47;;;21.37;;
77061;SDS011;65989;51.686;5.138;2023-05-10T06:44:29;43.95;;;21.23;;
77061;SDS011;65989;51.686;5.138;2023-05-10T06:46:55;39.43;;;20.87;;
77061;SDS011;65989;51.686;5.138;2023-05-10T06:49:20;39.05;;;20.50;;
77061;SDS011;65989;51.686;5.138;2023-05-10T06:51:46;37.70;;;20.70;;
77061;SDS011;65989;51.686;5.138;2023-05-10T06:54:12;41.77;;;22.53;;
77061;SDS011;65989;51.686;5.138;2023-05-10T06:56:37;40.38;;;21.67;;
77061;SDS011;65989;51.686;5.138;2023-05-10T06:59:02;42.10;;;21.73;;
77061;SDS011;65989;51.686;5.138;2023-05-10T07:01:28;43.03;;;20.93;;
77061;SDS011;65989;51.686;5.138;2023-05-10T07:03:53;36.50;;;19.23;;
77061;SDS011;65989;51.686;5.138;2023-05-10T07:06:19;42.35;;;18.67;;
77061;SDS011;65989;51.686;5.138;2023-05-10T07:08:44;32.77;;;18.17;;
77061;SDS011;65989;51.686;5.138;2023-05-10T07:11:09;41.33;;;22.17;;
77061;SDS011;65989;51.686;5.138;2023-05-10T07:13:38;42.45;;;22.65;;
77061;SDS011;65989;51.686;5.138;2023-05-10T07:16:06;36.05;;;20.17;;
77061;SDS011;65989;51.686;5.138;2023-05-10T07:18:32;38.13;;;19.77;;
77061;SDS011;65989;51.686;5.138;2023-05-10T07:20:58;34.72;;;19.40;;
77061;SDS011;65989;51.686;5.138;2023-05-10T07:23:24;35.80;;;19.43;;
77061;SDS011;65989;51.686;5.138;2023-05-10T07:25:49;34.08;;;18.60;;
77061;SDS011;65989;51.686;5.138;2023-05-10T07:28:17;38.13;;;19.47;;
77061;SDS011;65989;51.686;5.138;2023-05-10T07:30:43;36.00;;;20.33;;
77061;SDS011;65989;51.686;5.138;2023-05-10T07:33:08;40.53;;;21.90;;
77061;SDS011;65989;51.686;5.138;2023-05-10T07:35:35;42.20;;;22.90;;
77061;SDS011;65989;51.686;5.138;2023-05-10T07:38:00;35.22;;;21.02;;
77061;SDS011;65989;51.686;5.138;2023-05-10T07:40:26;34.90;;;20.10;;
77061;SDS011;65989;51.686;5.138;2023-05-10T07:42:52;33.77;;;17.77;;
77061;SDS011;65989;51.686;5.138;2023-05-10T07:45:17;30.30;;;16.77;;
77061;SDS011;65989;51.686;5.138;2023-05-10T07:47:43;28.90;;;14.60;;
77061;SDS011;65989;51.686;5.138;2023-05-10T07:50:08;25.27;;;14.17;;
77061;SDS011;65989;51.686;5.138;2023-05-10T07:52:34;21.10;;;12.97;;
77061;SDS011;65989;51.686;5.138;2023-05-10T07:54:59;23.03;;;12.97;;
77061;SDS011;65989;51.686;5.138;2023-05-10T07:57:24;22.30;;;11.93;;
77061;SDS011;65989;51.686;5.138;2023-05-10T07:59:53;17.97;;;11.63;;
77061;SDS011;65989;51.686;5.138;2023-05-10T08:02:18;18.02;;;11.93;;
77061;SDS011;65989;51.686;5.138;2023-05-10T08:04:44;20.10;;;10.90;;
77061;SDS011;65989;51.686;5.138;2023-05-10T08:07:09;19.03;;;10.80;;
77061;SDS011;65989;51.686;5.138;2023-05-10T08:09:35;19.70;;;10.23;;
77061;SDS011;65989;51.686;5.138;2023-05-10T08:12:01;13.80;;;7.53;;
77061;SDS011;65989;51.686;5.138;2023-05-10T08:14:27;13.65;;;7.70;;
77061;SDS011;65989;51.686;5.138;2023-05-10T08:16:54;12.40;;;6.97;;
77061;SDS011;65989;51.686;5.138;2023-05-10T08:19:19;12.33;;;7.47;;
77061;SDS011;65989;51.686;5.138;2023-05-10T08:21:46;11.73;;;7.07;;
77061;SDS011;65989;51.686;5.138;2023-05-10T08:24:11;12.60;;;7.40;;
77061;SDS011;65989;51.686;5.138;2023-05-10T08:26:37;12.07;;;7.00;;
77061;SDS011;65989;51.686;5.138;2023-05-10T08:29:02;11.57;;;6.23;;
77061;SDS011;65989;51.686;5.138;2023-05-10T08:31:28;11.07;;;6.25;;
77061;SDS011;65989;51.686;5.138;2023-05-10T08:33:53;15.40;;;7.17;;
77061;SDS011;65989;51.686;5.138;2023-05-10T08:36:18;13.13;;;7.60;;
77061;SDS011;65989;51.686;5.138;2023-05-10T08:38:52;10.88;;;7.80;;
77061;SDS011;65989;51.686;5.138;2023-05-10T08:41:22;13.88;;;7.35;;
77061;SDS011;65989;51.686;5.138;2023-05-10T08:43:54;12.32;;;6.97;;
77061;SDS011;65989;51.686;5.138;2023-05-10T08:46:20;11.23;;;7.33;;
77061;SDS011;65989;51.686;5.138;2023-05-10T08:48:47;12.15;;;7.82;;
77061;SDS011;65989;51.686;5.138;2023-05-10T08:51:14;15.02;;;7.95;;
77061;SDS011;65989;51.686;5.138;2023-05-10T08:53:42;13.95;;;8.75;;
77061;SDS011;65989;51.686;5.138;2023-05-10T08:56:08;15.43;;;8.98;;
77061;SDS011;65989;51.686;5.138;2023-05-10T08:58:34;14.60;;;9.07;;
77061;SDS011;65989;51.686;5.138;2023-05-10T09:00:59;13.83;;;9.53;;
77061;SDS011;65989;51.686;5.138;2023-05-10T09:03:25;13.30;;;9.32;;
77061;SDS011;65989;51.686;5.138;2023-05-10T09:05:51;14.33;;;10.40;;
77061;SDS011;65989;51.686;5.138;2023-05-10T09:08:17;15.00;;;10.77;;
77061;SDS011;65989;51.686;5.138;2023-05-10T09:10:43;13.70;;;10.13;;
77061;SDS011;65989;51.686;5.138;2023-05-10T09:13:09;14.52;;;10.85;;
77061;SDS011;65989;51.686;5.138;2023-05-10T09:15:36;14.10;;;10.23;;
77061;SDS011;65989;51.686;5.138;2023-05-10T09:18:02;15.00;;;10.50;;
77061;SDS011;65989;51.686;5.138;2023-05-10T09:20:27;14.33;;;9.80;;
77061;SDS011;65989;51.686;5.138;2023-05-10T09:22:53;17.70;;;9.48;;
77061;SDS011;65989;51.686;5.138;2023-05-10T09:25:18;13.67;;;9.97;;
77061;SDS011;65989;51.686;5.138;2023-05-10T09:27:45;15.07;;;10.30;;
77061;SDS011;65989;51.686;5.138;2023-05-10T09:30:15;15.88;;;9.75;;
77061;SDS011;65989;51.686;5.138;2023-05-10T09:32:45;15.02;;;9.50;;
77061;SDS011;65989;51.686;5.138;2023-05-10T09:35:14;13.20;;;9.50;;
77061;SDS011;65989;51.686;5.138;2023-05-10T09:37:41;15.43;;;9.35;;
77061;SDS011;65989;51.686;5.138;2023-05-10T09:40:11;14.02;;;9.10;;
77061;SDS011;65989;51.686;5.138;2023-05-10T09:42:38;11.07;;;8.45;;
77061;SDS011;65989;51.686;5.138;2023-05-10T09:45:04;12.57;;;8.40;;
77061;SDS011;65989;51.686;5.138;2023-05-10T09:47:33;11.80;;;7.87;;
77061;SDS011;65989;51.686;5.138;2023-05-10T09:49:59;11.73;;;7.18;;
77061;SDS011;65989;51.686;5.138;2023-05-10T09:52:39;17.55;;;7.10;;
77061;SDS011;65989;51.686;5.138;2023-05-10T09:55:14;15.30;;;6.63;;
77061;SDS011;65989;51.686;5.138;2023-05-10T09:57:40;10.35;;;6.22;;
77061;SDS011;65989;51.686;5.138;2023-05-10T10:00:06;11.17;;;6.20;;
77061;SDS011;65989;51.686;5.138;2023-05-10T10:02:32;12.45;;;6.38;;
77061;SDS011;65989;51.686;5.138;2023-05-10T10:04:59;12.00;;;6.27;;
77061;SDS011;65989;51.686;5.138;2023-05-10T10:07:26;10.88;;;6.30;;
77061;SDS011;65989;51.686;5.138;2023-05-10T10:09:53;12.20;;;6.97;;
77061;SDS011;65989;51.686;5.138;2023-05-10T10:12:18;12.90;;;6.28;;
77061;SDS011;65989;51.686;5.138;2023-05-10T10:14:45;11.27;;;6.38;;
77061;SDS011;65989;51.686;5.138;2023-05-10T10:17:12;11.30;;;6.15;;
77061;SDS011;65989;51.686;5.138;2023-05-10T10:19:38;10.40;;;5.73;;
77061;SDS011;65989;51.686;5.138;2023-05-10T10:22:04;11.43;;;6.38;;
77061;SDS011;65989;51.686;5.138;2023-05-10T10:24:30;8.63;;;6.07;;
77061;SDS011;65989;51.686;5.138;2023-05-10T10:26:57;11.53;;;6.53;;
77061;SDS011;65989;51.686;5.138;2023-05-10T10:34:45;11.03;;;6.93;;
77061;SDS011;65989;51.686;5.138;2023-05-10T10:37:10;13.48;;;6.60;;
77061;SDS011;65989;51.686;5.138;2023-05-10T10:39:35;10.70;;;6.70;;
77061;SDS011;65989;51.686;5.138;2023-05-10T10:42:01;11.38;;;6.32;;
77061;SDS011;65989;51.686;5.138;2023-05-10T10:49:26;9.13;;;5.30;;
77061;SDS011;65989;51.686;5.138;2023-05-10T10:55:09;9.57;;;4.50;;
77061;SDS011;65989;51.686;5.138;2023-05-10T11:00:18;5.88;;;3.70;;
77061;SDS011;65989;51.686;5.138;2023-05-10T11:02:54;8.60;;;4.38;;
77061;SDS011;65989;51.686;5.138;2023-05-10T11:05:43;9.68;;;3.70;;
77061;SDS011;65989;51.686;5.138;2023-05-10T11:13:31;10.65;;;3.88;;
77061;SDS011;65989;51.686;5.138;2023-05-10T11:16:40;7.30;;;4.13;;
77061;SDS011;65989;51.686;5.138;2023-05-10T11:19:10;9.45;;;4.28;;
77061;SDS011;65989;51.686;5.138;2023-05-10T11:24:15;7.90;;;3.50;;
77061;SDS011;65989;51.686;5.138;2023-05-10T11:26:45;9.05;;;4.05;;
77061;SDS011;65989;51.686;5.138;2023-05-10T11:29:14;6.68;;;3.90;;
77061;SDS011;65989;51.686;5.138;2023-05-10T11:31:44;10.30;;;5.40;;
77061;SDS011;65989;51.686;5.138;2023-05-10T11:34:10;8.77;;;5.40;;
77061;SDS011;65989;51.686;5.138;2023-05-10T11:36:39;8.38;;;4.82;;
77061;SDS011;65989;51.686;5.138;2023-05-10T11:39:05;10.65;;;5.70;;
77061;SDS011;65989;51.686;5.138;2023-05-10T11:41:31;8.35;;;5.10;;
77061;SDS011;65989;51.686;5.138;2023-05-10T11:43:59;8.35;;;5.75;;
77061;SDS011;65989;51.686;5.138;2023-05-10T11:46:28;8.80;;;5.33;;
77061;SDS011;65989;51.686;5.138;2023-05-10T11:49:00;10.27;;;5.97;;
77061;SDS011;65989;51.686;5.138;2023-05-10T11:51:26;9.47;;;6.33;;
77061;SDS011;65989;51.686;5.138;2023-05-10T11:53:53;9.45;;;6.60;;
77061;SDS011;65989;51.686;5.138;2023-05-10T11:56:20;10.85;;;6.70;;
77061;SDS011;65989;51.686;5.138;2023-05-10T11:58:51;13.40;;;6.40;;
77061;SDS011;65989;51.686;5.138;2023-05-10T12:01:18;10.73;;;6.67;;
77061;SDS011;65989;51.686;5.138;2023-05-10T12:03:43;8.55;;;5.80;;
77061;SDS011;65989;51.686;5.138;2023-05-10T12:06:09;8.40;;;5.10;;
77061;SDS011;65989;51.686;5.138;2023-05-10T12:08:35;9.93;;;6.20;;
77061;SDS011;65989;51.686;5.138;2023-05-10T12:11:04;9.23;;;5.83;;
77061;SDS011;65989;51.686;5.138;2023-05-10T12:13:31;10.32;;;5.82;;
77061;SDS011;65989;51.686;5.138;2023-05-10T12:15:57;9.07;;;6.30;;
77061;SDS011;65989;51.686;5.138;2023-05-10T12:18:23;10.88;;;6.00;;
77061;SDS011;65989;51.686;5.138;2023-05-10T12:20:51;9.30;;;6.10;;
77061;SDS011;65989;51.686;5.138;2023-05-10T12:23:18;8.95;;;5.72;;
77061;SDS011;65989;51.686;5.138;2023-05-10T12:25:45;10.60;;;5.63;;
77061;SDS011;65989;51.686;5.138;2023-05-10T12:28:11;9.27;;;4.70;;
77061;SDS011;65989;51.686;5.138;2023-05-10T12:30:37;7.40;;;4.97;;
77061;SDS011;65989;51.686;5.138;2023-05-10T12:33:07;7.82;;;4.78;;
77061;SDS011;65989;51.686;5.138;2023-05-10T12:35:43;9.25;;;4.80;;
77061;SDS011;65989;51.686;5.138;2023-05-10T12:41:05;8.77;;;5.40;;
77061;SDS011;65989;51.686;5.138;2023-05-10T12:43:32;10.17;;;5.90;;
77061;SDS011;65989;51.686;5.138;2023-05-10T12:45:58;11.52;;;6.57;;
77061;SDS011;65989;51.686;5.138;2023-05-10T12:48:29;12.40;;;7.00;;
77061;SDS011;65989;51.686;5.138;2023-05-10T12:50:56;13.00;;;7.95;;
77061;SDS011;65989;51.686;5.138;2023-05-10T12:53:21;12.87;;;7.67;;
77061;SDS011;65989;51.686;5.138;2023-05-10T12:55:46;12.47;;;7.67;;
77061;SDS011;65989;51.686;5.138;2023-05-10T12:58:12;9.30;;;7.17;;
77061;SDS011;65989;51.686;5.138;2023-05-10T13:00:37;9.98;;;6.78;;
77061;SDS011;65989;51.686;5.138;2023-05-10T13:03:03;11.43;;;6.93;;
77061;SDS011;65989;51.686;5.138;2023-05-10T13:05:31;10.82;;;7.28;;
77061;SDS011;65989;51.686;5.138;2023-05-10T13:08:00;10.85;;;6.70;;
77061;SDS011;65989;51.686;5.138;2023-05-10T13:10:26;10.60;;;6.70;;
77061;SDS011;65989;51.686;5.138;2023-05-10T13:12:51;10.65;;;6.07;;
77061;SDS011;65989;51.686;5.138;2023-05-10T13:15:16;12.10;;;6.03;;
77061;SDS011;65989;51.686;5.138;2023-05-10T13:17:42;11.53;;;5.73;;
77061;SDS011;65989;51.686;5.138;2023-05-10T13:20:08;11.10;;;6.03;;
77061;SDS011;65989;51.686;5.138;2023-05-10T13:22:37;11.70;;;6.00;;
77061;SDS011;65989;51.686;5.138;2023-05-10T13:25:02;10.70;;;5.50;;
77061;SDS011;65989;51.686;5.138;2023-05-10T13:27:28;8.63;;;5.68;;
77061;SDS011;65989;51.686;5.138;2023-05-10T13:29:53;9.97;;;4.93;;
77061;SDS011;65989;51.686;5.138;2023-05-10T13:32:19;10.75;;;5.13;;
77061;SDS011;65989;51.686;5.138;2023-05-10T13:34:45;10.32;;;5.07;;
77061;SDS011;65989;51.686;5.138;2023-05-10T13:37:10;9.63;;;4.77;;
77061;SDS011;65989;51.686;5.138;2023-05-10T13:39:36;9.77;;;4.53;;
77061;SDS011;65989;51.686;5.138;2023-05-10T13:42:02;8.25;;;4.22;;
77061;SDS011;65989;51.686;5.138;2023-05-10T13:44:28;9.52;;;4.60;;
77061;SDS011;65989;51.686;5.138;2023-05-10T13:46:54;8.40;;;4.57;;
77061;SDS011;65989;51.686;5.138;2023-05-10T13:49:20;8.25;;;4.18;;
77061;SDS011;65989;51.686;5.138;2023-05-10T13:51:47;10.38;;;5.00;;
77061;SDS011;65989;51.686;5.138;2023-05-10T13:54:12;11.00;;;4.70;;
77061;SDS011;65989;51.686;5.138;2023-05-10T13:56:38;9.40;;;5.00;;
77061;SDS011;65989;51.686;5.138;2023-05-10T13:59:03;10.15;;;4.82;;
77061;SDS011;65989;51.686;5.138;2023-05-10T14:01:28;9.63;;;5.03;;
77061;SDS011;65989;51.686;5.138;2023-05-10T14:03:54;11.03;;;4.70;;
77061;SDS011;65989;51.686;5.138;2023-05-10T14:06:19;8.13;;;4.17;;
77061;SDS011;65989;51.686;5.138;2023-05-10T14:08:45;8.18;;;4.18;;
77061;SDS011;65989;51.686;5.138;2023-05-10T14:11:10;9.03;;;4.57;;
77061;SDS011;65989;51.686;5.138;2023-05-10T14:13:36;8.50;;;4.43;;
77061;SDS011;65989;51.686;5.138;2023-05-10T14:16:02;7.87;;;4.40;;
77061;SDS011;65989;51.686;5.138;2023-05-10T14:18:27;10.88;;;4.85;;
77061;SDS011;65989;51.686;5.138;2023-05-10T14:20:53;9.87;;;4.80;;
77061;SDS011;65989;51.686;5.138;2023-05-10T14:23:21;8.20;;;4.47;;
77061;SDS011;65989;51.686;5.138;2023-05-10T14:25:51;11.52;;;4.55;;
77061;SDS011;65989;51.686;5.138;2023-05-10T14:28:17;7.85;;;3.95;;
77061;SDS011;65989;51.686;5.138;2023-05-10T14:30:46;6.33;;;3.40;;
77061;SDS011;65989;51.686;5.138;2023-05-10T14:33:11;9.70;;;3.70;;
77061;SDS011;65989;51.686;5.138;2023-05-10T14:35:37;6.78;;;3.30;;
77061;SDS011;65989;51.686;5.138;2023-05-10T14:38:03;8.53;;;3.37;;
77061;SDS011;65989;51.686;5.138;2023-05-10T14:40:29;7.60;;;2.60;;
77061;SDS011;65989;51.686;5.138;2023-05-10T14:42:54;6.43;;;3.20;;
77061;SDS011;65989;51.686;5.138;2023-05-10T14:45:21;6.57;;;2.60;;
77061;SDS011;65989;51.686;5.138;2023-05-10T14:47:47;6.75;;;2.55;;
77061;SDS011;65989;51.686;5.138;2023-05-10T14:50:13;6.57;;;2.87;;
77061;SDS011;65989;51.686;5.138;2023-05-10T14:52:38;6.88;;;2.85;;
77061;SDS011;65989;51.686;5.138;2023-05-10T14:55:04;8.23;;;3.47;;
77061;SDS011;65989;51.686;5.138;2023-05-10T14:57:30;9.45;;;3.63;;
77061;SDS011;65989;51.686;5.138;2023-05-10T14:59:55;8.67;;;3.50;;
77061;SDS011;65989;51.686;5.138;2023-05-10T15:02:21;7.10;;;3.38;;
77061;SDS011;65989;51.686;5.138;2023-05-10T15:04:47;7.70;;;3.20;;
77061;SDS011;65989;51.686;5.138;2023-05-10T15:07:12;8.17;;;3.33;;
77061;SDS011;65989;51.686;5.138;2023-05-10T15:09:40;7.45;;;3.17;;
77061;SDS011;65989;51.686;5.138;2023-05-10T15:12:06;6.40;;;3.20;;
77061;SDS011;65989;51.686;5.138;2023-05-10T15:14:31;8.37;;;3.50;;
77061;SDS011;65989;51.686;5.138;2023-05-10T15:16:57;10.45;;;4.00;;